Terminal Aerodrome Forecast
Issued by NWS Paducah, KY

Home | Current Version | Previous Version | Text Only | Print | Product List | Glossary On
Versions: 1 2 3 4 5 6 7 8 9 10 11 12 13 14 15 16 17 18 19
000
FTUS43 KPAH 240200 AAB
TAFPAH
TAF AMD
KPAH 240245Z 2403/2424 35005KT 6SM -RA BR OVC030
     FM240600 35008KT 4SM -RA BR OVC020
     FM241500 29008KT 6SM BR OVC025=

USA.gov is the U.S. government's official web portal to all federal, state and local government web resources and services.